Time;durP1;ratioP1;P1;durP2;ratioP2;P2;SDS_P1;SDS_P2;PMS_P1;PMS_P2;Temp;Humidity;BMP_temperature;BMP_pressure;BME280_temperature;BME280_humidity;BME280_pressure;Samples;Min_cycle;Max_cycle;Signal;HPM_P1;HPM_P2
2020/12/05 00:00:12;;;;;;;9.20;5.10;;;;;0.30;98492.00;;;;10122715;29;20273;-70
2020/12/05 00:05:14;;;;;;;12.03;5.60;;;;;0.30;98495.00;;;;10140610;29;20255;-70
2020/12/05 00:10:16;;;;;;;5.77;4.67;;;;;0.40;98505.00;;;;10130467;29;20215;-71
2020/12/05 00:15:18;;;;;;;10.53;5.30;;;;;0.50;98509.00;;;;10101785;29;20419;-70
2020/12/05 00:20:20;;;;;;;8.20;5.13;;;;;0.50;98509.00;;;;10135300;29;20885;-70
2020/12/05 00:25:22;;;;;;;8.87;4.70;;;;;0.30;98529.00;;;;10137697;29;20310;-70
2020/12/05 00:30:28;;;;;;;8.53;5.37;;;;;0.10;98540.00;;;;10136501;29;20235;-70
2020/12/05 00:35:31;;;;;;;8.17;5.27;;;;;0.10;98561.00;;;;10139609;29;20223;-73
2020/12/05 00:40:33;;;;;;;12.33;5.40;;;;;0.10;98578.00;;;;10118983;29;20239;-70
2020/12/05 00:45:35;;;;;;;10.73;5.00;;;;;0.10;98591.00;;;;10134736;29;20547;-70
2020/12/05 00:50:37;;;;;;;13.80;5.17;;;;;0.10;98608.00;;;;10137300;29;20235;-70
2020/12/05 00:55:39;;;;;;;7.40;4.77;;;;;0.00;98607.00;;;;10134539;29;20708;-71
2020/12/05 01:00:41;;;;;;;8.33;4.67;;;;;0.00;98610.00;;;;10145013;29;21007;-71
2020/12/05 01:05:43;;;;;;;8.87;4.83;;;;;0.00;98614.00;;;;10133128;29;20211;-72
2020/12/05 01:10:46;;;;;;;10.33;5.57;;;;;0.00;98617.00;;;;10125315;29;20207;-70
2020/12/05 01:15:48;;;;;;;8.80;4.60;;;;;0.10;98612.00;;;;10096700;29;20207;-70
2020/12/05 01:20:50;;;;;;;11.13;5.97;;;;;0.20;98622.00;;;;10132389;29;20243;-73
2020/12/05 01:25:52;;;;;;;6.83;5.37;;;;;0.30;98621.00;;;;10139291;29;20566;-71
2020/12/05 01:30:54;;;;;;;10.43;4.80;;;;;0.30;98629.00;;;;10127053;29;20282;-70
2020/12/05 01:35:56;;;;;;;7.77;4.80;;;;;0.20;98638.00;;;;10132186;29;20207;-70
2020/12/05 01:40:59;;;;;;;9.47;4.97;;;;;0.00;98639.00;;;;10132811;29;20239;-70
2020/12/05 01:46:04;;;;;;;8.07;5.07;;;;;-0.10;98648.00;;;;10130227;29;20202;-71
2020/12/05 01:51:08;;;;;;;10.33;4.33;;;;;-0.20;98641.00;;;;10136542;23;20238;-80
2020/12/05 01:56:10;;;;;;;7.53;4.43;;;;;-0.40;98634.00;;;;10135278;29;20209;-78
2020/12/05 02:01:13;;;;;;;7.40;4.93;;;;;-0.50;98648.00;;;;10168930;29;20269;-82
2020/12/05 02:06:37;;;;;;;9.90;5.27;;;;;-0.50;98656.00;;;;10181006;29;20210;-80
2020/12/05 02:11:43;;;;;;;9.37;5.10;;;;;-0.50;98657.00;;;;10133196;29;20609;-78
2020/12/05 02:16:46;;;;;;;11.57;5.73;;;;;-0.40;98650.00;;;;10183747;29;20556;-76
2020/12/05 02:21:53;;;;;;;9.80;5.20;;;;;-0.40;98638.00;;;;10159565;29;20713;-77
2020/12/05 02:26:55;;;;;;;18.57;10.53;;;;;-0.30;98642.00;;;;10173999;29;20543;-77
2020/12/05 02:31:58;;;;;;;17.10;12.27;;;;;-0.20;98651.00;;;;10172940;29;20254;-82
2020/12/05 02:37:09;;;;;;;17.33;11.13;;;;;-0.10;98657.00;;;;10176487;29;20258;-80
2020/12/05 02:42:18;;;;;;;12.80;8.00;;;;;0.00;98656.00;;;;10174733;29;20228;-78
2020/12/05 02:47:23;;;;;;;13.30;6.90;;;;;0.00;98670.00;;;;10164600;29;20630;-77
2020/12/05 02:52:25;;;;;;;13.67;7.87;;;;;-0.10;98664.00;;;;10184296;29;20325;-78
2020/12/05 02:57:27;;;;;;;11.10;6.90;;;;;-0.30;98668.00;;;;10168526;29;20199;-84
2020/12/05 03:02:29;;;;;;;12.53;6.93;;;;;-0.30;98678.00;;;;10186263;29;20242;-78
2020/12/05 03:07:32;;;;;;;10.63;7.27;;;;;-0.40;98683.00;;;;10150689;29;20228;-81
2020/12/05 03:12:34;;;;;;;13.77;7.63;;;;;-0.40;98690.00;;;;10134403;29;20281;-78
2020/12/05 03:17:36;;;;;;;14.87;7.87;;;;;-0.30;98694.00;;;;10148381;29;20249;-77
2020/12/05 03:22:38;;;;;;;15.90;8.60;;;;;-0.20;98688.00;;;;10161934;29;20582;-78
2020/12/05 03:27:40;;;;;;;15.70;8.43;;;;;-0.20;98691.00;;;;10157658;29;20259;-80
2020/12/05 03:32:43;;;;;;;13.83;9.20;;;;;0.00;98685.00;;;;10155809;29;20435;-77
2020/12/05 03:37:45;;;;;;;12.53;7.63;;;;;0.00;98685.00;;;;10157162;29;20285;-77
2020/12/05 03:42:47;;;;;;;9.03;6.10;;;;;0.10;98691.00;;;;10134626;29;20237;-76
2020/12/05 03:47:49;;;;;;;10.07;5.73;;;;;0.30;98690.00;;;;10152825;29;20722;-78
2020/12/05 03:52:51;;;;;;;11.67;5.70;;;;;0.50;98697.00;;;;10164860;29;20240;-77
2020/12/05 03:57:53;;;;;;;9.77;5.47;;;;;0.70;98702.00;;;;10181402;29;20290;-78
2020/12/05 04:02:58;;;;;;;13.07;6.87;;;;;0.80;98686.00;;;;10168933;29;20774;-77
2020/12/05 04:08:00;;;;;;;15.17;6.57;;;;;0.80;98696.00;;;;10166046;29;20202;-83
2020/12/05 04:13:04;;;;;;;9.43;5.33;;;;;0.80;98705.00;;;;10145919;29;20225;-80
2020/12/05 04:18:06;;;;;;;7.70;4.93;;;;;0.80;98705.00;;;;10178434;29;20290;-75
2020/12/05 04:23:08;;;;;;;10.90;5.27;;;;;0.80;98718.00;;;;10133637;29;20310;-81
2020/12/05 04:28:10;;;;;;;7.33;4.73;;;;;0.80;98733.00;;;;10178491;29;20207;-76
2020/12/05 04:33:12;;;;;;;9.60;5.20;;;;;0.70;98751.00;;;;10157761;29;20313;-79
2020/12/05 04:38:15;;;;;;;9.20;4.80;;;;;0.60;98750.00;;;;10147272;29;20198;-77
2020/12/05 04:43:17;;;;;;;8.23;5.40;;;;;0.70;98758.00;;;;10148284;29;20784;-75
2020/12/05 04:48:22;;;;;;;8.20;5.37;;;;;0.80;98753.00;;;;10146764;29;20325;-78
2020/12/05 04:53:24;;;;;;;6.53;5.07;;;;;0.90;98755.00;;;;10156166;29;20234;-77
2020/12/05 04:58:27;;;;;;;9.33;5.77;;;;;1.00;98753.00;;;;10186234;29;20245;-85
2020/12/05 05:03:29;;;;;;;9.07;5.80;;;;;1.20;98771.00;;;;10154453;29;20635;-76
2020/12/05 05:08:31;;;;;;;8.33;5.60;;;;;1.40;98777.00;;;;10172598;29;20975;-76
2020/12/05 05:13:48;;;;;;;9.00;5.50;;;;;1.50;98782.00;;;;10146530;29;20246;-79
2020/12/05 05:18:50;;;;;;;8.47;5.80;;;;;1.60;98792.00;;;;10161409;29;20250;-80
2020/12/05 05:23:53;;;;;;;9.60;5.57;;;;;1.70;98806.00;;;;10145313;29;20250;-75
2020/12/05 05:28:55;;;;;;;8.37;5.73;;;;;1.80;98814.00;;;;10181626;29;20199;-80
2020/12/05 05:33:57;;;;;;;10.33;6.00;;;;;1.80;98809.00;;;;10137212;29;20227;-79
2020/12/05 05:39:09;;;;;;;8.50;5.17;;;;;1.80;98811.00;;;;10163022;29;20337;-77
2020/12/05 05:44:14;;;;;;;8.73;6.37;;;;;1.70;98827.00;;;;10155438;29;20233;-75
2020/12/05 05:49:29;;;;;;;12.13;5.83;;;;;1.50;98826.00;;;;10160464;29;20206;-75
2020/12/05 05:54:35;;;;;;;12.13;5.87;;;;;1.50;98830.00;;;;10172044;29;20241;-80
2020/12/05 05:59:39;;;;;;;10.27;5.63;;;;;1.50;98839.00;;;;10187699;29;20287;-77
2020/12/05 06:04:45;;;;;;;9.77;6.30;;;;;1.50;98842.00;;;;10165640;29;20313;-85
2020/12/05 06:09:50;;;;;;;13.37;6.60;;;;;1.60;98848.00;;;;10182474;29;20202;-76
2020/12/05 06:14:54;;;;;;;9.53;5.63;;;;;1.60;98859.00;;;;10160164;29;20218;-80
2020/12/05 06:19:56;;;;;;;6.47;4.93;;;;;1.60;98868.00;;;;10145686;29;20321;-78
2020/12/05 06:25:16;;;;;;;7.37;5.40;;;;;1.60;98881.00;;;;10147604;29;20690;-76
2020/12/05 06:30:18;;;;;;;10.83;6.00;;;;;1.50;98885.00;;;;10183946;29;20670;-75
2020/12/05 06:35:23;;;;;;;7.53;5.43;;;;;1.50;98895.00;;;;10164847;29;20262;-78
2020/12/05 06:40:26;;;;;;;8.73;5.77;;;;;1.50;98906.00;;;;10157648;29;20262;-74
2020/12/05 06:45:29;;;;;;;8.67;6.13;;;;;1.50;98895.00;;;;10153160;29;20317;-76
2020/12/05 06:50:36;;;;;;;9.70;6.60;;;;;1.40;98899.00;;;;10152147;29;20969;-74
2020/12/05 06:55:38;;;;;;;12.17;5.93;;;;;1.30;98897.00;;;;10160578;29;20316;-75
2020/12/05 07:00:41;;;;;;;10.77;6.20;;;;;1.10;98911.00;;;;10175286;29;20265;-79
2020/12/05 07:05:44;;;;;;;9.43;7.03;;;;;1.00;98916.00;;;;10180378;29;20260;-75
2020/12/05 07:10:57;;;;;;;10.27;5.17;;;;;0.90;98932.00;;;;10166312;29;20195;-77
2020/12/05 07:16:15;;;;;;;10.07;5.17;;;;;0.80;98921.00;;;;10153597;29;20297;-81
2020/12/05 07:21:18;;;;;;;6.50;5.03;;;;;0.80;98937.00;;;;10143234;29;20238;-81
2020/12/05 07:26:21;;;;;;;6.33;4.67;;;;;0.70;98960.00;;;;10149099;29;20644;-77
2020/12/05 07:31:23;;;;;;;8.13;4.83;;;;;0.70;98969.00;;;;10156344;29;20305;-82
2020/12/05 07:36:26;;;;;;;6.30;4.83;;;;;0.70;98987.00;;;;10175077;29;20478;-81
2020/12/05 07:41:28;;;;;;;6.23;4.47;;;;;0.70;98996.00;;;;10158509;29;20312;-79
2020/12/05 07:46:31;;;;;;;6.87;4.63;;;;;0.80;99001.00;;;;10148008;29;20278;-83
2020/12/05 07:51:33;;;;;;;5.77;3.83;;;;;1.10;99022.00;;;;10186935;29;20251;-82
2020/12/05 07:56:35;;;;;;;4.27;3.10;;;;;1.50;99031.00;;;;10140050;29;20235;-75
2020/12/05 08:01:55;;;;;;;5.90;4.07;;;;;1.70;99050.00;;;;10163932;29;20609;-78
2020/12/05 08:07:03;;;;;;;6.07;2.90;;;;;2.00;99066.00;;;;10147739;29;20217;-82
2020/12/05 08:12:12;;;;;;;6.17;3.30;;;;;2.30;99078.00;;;;10143752;29;20581;-77
2020/12/05 08:17:14;;;;;;;3.47;2.97;;;;;2.40;99086.00;;;;10159902;29;20289;-80
2020/12/05 08:22:20;;;;;;;3.20;2.57;;;;;2.60;99083.00;;;;10170156;29;20246;-77
2020/12/05 08:27:23;;;;;;;2.77;2.47;;;;;2.80;99085.00;;;;10163357;29;20211;-76
2020/12/05 08:32:28;;;;;;;4.83;2.47;;;;;2.80;99093.00;;;;10140113;29;20229;-76
2020/12/05 08:37:32;;;;;;;5.07;2.97;;;;;2.90;99088.00;;;;10170307;29;20203;-78
2020/12/05 08:42:34;;;;;;;8.17;3.50;;;;;3.30;99116.00;;;;10159573;29;20317;-79
2020/12/05 08:47:47;;;;;;;6.27;4.13;;;;;3.60;99114.00;;;;10157992;29;20298;-77
2020/12/05 08:52:53;;;;;;;6.33;2.80;;;;;3.80;99123.00;;;;10165570;29;20289;-81
2020/12/05 08:57:57;;;;;;;3.60;2.60;;;;;3.90;99122.00;;;;10166380;29;21072;-78
2020/12/05 09:02:59;;;;;;;4.53;2.97;;;;;3.90;99130.00;;;;10176096;29;20417;-75
2020/12/05 09:08:02;;;;;;;10.27;3.60;;;;;4.10;99120.00;;;;10164809;29;20228;-77
2020/12/05 09:13:05;;;;;;;3.90;3.03;;;;;4.30;99114.00;;;;10175733;28;20241;-78
2020/12/05 09:18:07;;;;;;;5.00;3.10;;;;;4.50;99123.00;;;;10163556;29;20627;-80
2020/12/05 09:23:09;;;;;;;5.23;2.70;;;;;4.70;99144.00;;;;10145060;29;20281;-77
2020/12/05 09:28:14;;;;;;;3.70;2.90;;;;;4.90;99143.00;;;;10150361;29;20298;-78
2020/12/05 09:33:17;;;;;;;5.13;2.90;;;;;4.90;99150.00;;;;10172540;29;20226;-79
2020/12/05 09:38:19;;;;;;;4.93;2.67;;;;;4.90;99152.00;;;;10149910;29;20203;-85
2020/12/05 09:43:21;;;;;;;3.17;2.07;;;;;4.90;99152.00;;;;10146064;29;20233;-78
2020/12/05 09:48:23;;;;;;;5.83;2.53;;;;;4.90;99152.00;;;;10174049;29;20230;-78
2020/12/05 09:53:26;;;;;;;7.40;3.30;;;;;4.90;99150.00;;;;10180078;29;20282;-80
2020/12/05 09:58:28;;;;;;;3.97;2.67;;;;;5.00;99155.00;;;;10181929;29;20225;-79
2020/12/05 10:03:30;;;;;;;7.33;2.53;;;;;5.00;99155.00;;;;10172803;29;20229;-79
2020/12/05 10:08:32;;;;;;;4.00;2.67;;;;;5.10;99161.00;;;;10182681;29;20594;-80
2020/12/05 10:13:34;;;;;;;5.90;3.10;;;;;5.20;99155.00;;;;10165261;29;20227;-78
2020/12/05 10:18:36;;;;;;;4.33;2.47;;;;;5.30;99153.00;;;;10184076;29;20208;-81
2020/12/05 10:23:38;;;;;;;3.10;2.30;;;;;5.60;99157.00;;;;10140319;29;20757;-77
2020/12/05 10:28:40;;;;;;;4.20;3.07;;;;;6.10;99166.00;;;;10148590;29;20294;-77
2020/12/05 10:33:42;;;;;;;3.93;1.97;;;;;6.40;99172.00;;;;10161386;29;20309;-76
2020/12/05 10:38:45;;;;;;;4.40;2.33;;;;;6.30;99181.00;;;;10182916;29;20320;-79
2020/12/05 10:43:47;;;;;;;4.40;1.90;;;;;6.30;99174.00;;;;10194964;29;20277;-78
2020/12/05 10:48:50;;;;;;;2.60;1.90;;;;;6.40;99172.00;;;;10191508;29;21646;-78
2020/12/05 10:53:52;;;;;;;5.03;2.07;;;;;6.50;99182.00;;;;10180935;29;20349;-83
2020/12/05 10:58:54;;;;;;;3.43;2.50;;;;;6.60;99185.00;;;;10156141;29;20235;-82
2020/12/05 11:03:56;;;;;;;5.10;1.67;;;;;6.40;99193.00;;;;10181454;29;20233;-80
2020/12/05 11:08:58;;;;;;;3.60;2.43;;;;;6.30;99186.00;;;;10188257;29;20205;-78
2020/12/05 11:14:00;;;;;;;5.33;2.20;;;;;6.30;99188.00;;;;10207291;29;20222;-76
2020/12/05 11:19:03;;;;;;;3.63;2.20;;;;;6.30;99187.00;;;;10189606;29;20313;-77
2020/12/05 11:24:05;;;;;;;4.33;1.90;;;;;6.10;99188.00;;;;10190038;29;20217;-79
2020/12/05 11:29:07;;;;;;;2.47;1.60;;;;;6.20;99193.00;;;;10192098;29;20300;-78
2020/12/05 11:34:13;;;;;;;4.43;1.70;;;;;6.20;99195.00;;;;10206443;28;20230;-79
2020/12/05 11:39:15;;;;;;;4.50;1.70;;;;;6.20;99193.00;;;;10194364;29;20321;-78
2020/12/05 11:44:17;;;;;;;4.30;1.73;;;;;6.20;99205.00;;;;10208555;29;20247;-83
2020/12/05 11:49:19;;;;;;;1.93;1.07;;;;;6.30;99201.00;;;;10201937;28;20234;-75
2020/12/05 11:54:22;;;;;;;1.33;1.10;;;;;6.40;99199.00;;;;10161176;29;20230;-75
2020/12/05 11:59:24;;;;;;;3.03;1.30;;;;;6.50;99194.00;;;;10172252;29;20226;-76
2020/12/05 12:04:26;;;;;;;3.27;1.40;;;;;6.60;99195.00;;;;10172027;29;20222;-79
2020/12/05 12:09:29;;;;;;;2.43;1.20;;;;;6.70;99188.00;;;;10204165;29;20240;-79
2020/12/05 12:14:31;;;;;;;3.40;1.50;;;;;6.90;99188.00;;;;10160105;29;20227;-77
2020/12/05 12:19:33;;;;;;;3.97;1.60;;;;;6.90;99189.00;;;;10187106;29;20229;-76
2020/12/05 12:24:35;;;;;;;1.80;1.33;;;;;6.80;99203.00;;;;10159521;29;20253;-76
2020/12/05 12:29:37;;;;;;;5.07;1.87;;;;;6.60;99213.00;;;;10195838;29;20278;-78
2020/12/05 12:34:39;;;;;;;2.30;1.57;;;;;6.50;99201.00;;;;10144664;29;21161;-76
2020/12/05 12:39:43;;;;;;;2.83;2.17;;;;;6.30;99201.00;;;;10159531;29;20652;-81
2020/12/05 12:44:48;;;;;;;3.40;1.90;;;;;6.50;99199.00;;;;10140767;29;20311;-77
2020/12/05 12:49:50;;;;;;;3.87;2.00;;;;;6.50;99195.00;;;;10161647;29;20213;-77
2020/12/05 12:54:52;;;;;;;2.47;1.87;;;;;6.50;99194.00;;;;10165817;29;20307;-78
2020/12/05 12:59:54;;;;;;;2.30;2.10;;;;;6.60;99195.00;;;;10151367;29;20641;-76
2020/12/05 13:04:56;;;;;;;2.30;1.33;;;;;6.70;99190.00;;;;10143528;29;20286;-76
2020/12/05 13:10:00;;;;;;;2.37;1.50;;;;;6.80;99196.00;;;;10147758;29;20311;-76
2020/12/05 13:15:03;;;;;;;4.43;2.97;;;;;6.80;99201.00;;;;10156588;29;20788;-77
2020/12/05 13:20:05;;;;;;;2.40;1.57;;;;;7.00;99194.00;;;;10138473;29;20231;-76
2020/12/05 13:25:08;;;;;;;1.33;1.20;;;;;6.90;99200.00;;;;10151071;29;20231;-82
2020/12/05 13:30:10;;;;;;;5.93;1.63;;;;;6.60;99207.00;;;;10167634;29;20282;-79
2020/12/05 13:35:12;;;;;;;1.97;1.87;;;;;6.40;99210.00;;;;10149319;29;20318;-75
2020/12/05 13:40:13;;;;;;;3.83;2.97;;;;;6.30;99208.00;;;;10168258;29;20266;-78
2020/12/05 13:45:16;;;;;;;2.50;1.70;;;;;6.20;99211.00;;;;10148484;29;20749;-77
2020/12/05 13:50:18;;;;;;;3.50;2.37;;;;;6.10;99226.00;;;;10172539;29;20213;-77
2020/12/05 13:55:21;;;;;;;2.93;2.00;;;;;6.10;99232.00;;;;10187962;29;20324;-80
2020/12/05 14:00:23;;;;;;;2.83;1.97;;;;;6.10;99235.00;;;;10183594;29;20274;-80
2020/12/05 14:05:25;;;;;;;3.53;1.57;;;;;6.10;99251.00;;;;10155059;29;21139;-79
2020/12/05 14:10:27;;;;;;;2.17;1.60;;;;;5.90;99256.00;;;;10174912;29;20230;-81
2020/12/05 14:15:30;;;;;;;3.77;2.30;;;;;5.80;99263.00;;;;10189906;29;20756;-78
2020/12/05 14:20:32;;;;;;;3.07;1.60;;;;;5.80;99285.00;;;;10182113;29;20323;-77
2020/12/05 14:25:34;;;;;;;4.20;2.20;;;;;5.70;99271.00;;;;10179986;29;20297;-82
2020/12/05 14:30:36;;;;;;;4.93;2.93;;;;;5.60;99289.00;;;;10178294;29;21096;-78
2020/12/05 14:35:38;;;;;;;5.80;3.87;;;;;5.60;99295.00;;;;10228051;28;22760;-79
2020/12/05 14:40:40;;;;;;;5.37;2.80;;;;;5.90;99282.00;;;;10211011;28;20316;-84
2020/12/05 14:45:42;;;;;;;4.53;2.20;;;;;5.70;99294.00;;;;10179018;29;20214;-80
2020/12/05 14:51:10;;;;;;;3.30;1.77;;;;;5.60;99293.00;;;;10210377;23;20266;31
2020/12/05 14:56:13;;;;;;;4.27;2.60;;;;;5.60;99300.00;;;;10117274;29;20230;-76
2020/12/05 15:01:15;;;;;;;5.17;2.50;;;;;5.50;99296.00;;;;10118786;29;20286;-79
2020/12/05 15:06:20;;;;;;;6.10;5.50;;;;;5.30;99294.00;;;;10134903;29;20211;-78
2020/12/05 15:11:26;;;;;;;2.67;1.90;;;;;5.10;99311.00;;;;10114938;29;20221;-77
2020/12/05 15:16:28;;;;;;;3.60;2.03;;;;;4.80;99322.00;;;;10141802;29;20207;-78
2020/12/05 15:21:30;;;;;;;3.63;2.60;;;;;4.70;99317.00;;;;10122675;29;20247;-77
2020/12/05 15:26:32;;;;;;;5.17;2.17;;;;;4.70;99320.00;;;;10125767;29;20238;-79
2020/12/05 15:31:35;;;;;;;4.87;2.57;;;;;4.60;99311.00;;;;10121281;29;20238;-82
2020/12/05 15:36:38;;;;;;;4.00;2.30;;;;;4.60;99315.00;;;;10113170;29;20294;-81
2020/12/05 15:41:44;;;;;;;6.13;2.73;;;;;4.60;99318.00;;;;10113773;29;20232;-76
2020/12/05 15:46:46;;;;;;;6.50;2.57;;;;;4.60;99315.00;;;;10141501;29;21029;-77
2020/12/05 15:51:48;;;;;;;4.63;2.90;;;;;4.50;99312.00;;;;10119203;29;20317;-80
2020/12/05 15:56:50;;;;;;;9.00;2.73;;;;;4.40;99308.00;;;;10137852;29;20710;-79
2020/12/05 16:01:53;;;;;;;2.80;2.20;;;;;4.40;99314.00;;;;10121783;29;20239;-76
2020/12/05 16:06:55;;;;;;;3.07;2.10;;;;;4.50;99316.00;;;;10120938;29;20212;-76
2020/12/05 16:11:57;;;;;;;4.70;2.00;;;;;4.30;99306.00;;;;10137397;29;20222;-85
2020/12/05 16:16:59;;;;;;;2.67;1.80;;;;;4.10;99299.00;;;;10105895;29;20294;-78
2020/12/05 16:22:03;;;;;;;5.30;4.57;;;;;3.80;99317.00;;;;10141212;29;20242;-82
2020/12/05 16:27:05;;;;;;;2.40;1.87;;;;;3.70;99327.00;;;;10124373;29;20230;-81
2020/12/05 16:32:07;;;;;;;2.93;2.23;;;;;3.50;99328.00;;;;10127809;29;20224;-76
2020/12/05 16:37:09;;;;;;;2.83;1.90;;;;;3.30;99342.00;;;;10103619;29;20295;-82
2020/12/05 16:42:11;;;;;;;8.97;3.73;;;;;3.10;99350.00;;;;10085862;29;20649;-82
2020/12/05 16:47:14;;;;;;;5.07;2.90;;;;;3.00;99355.00;;;;10080566;29;20287;-78
2020/12/05 16:52:16;;;;;;;7.30;3.63;;;;;2.90;99368.00;;;;10078502;29;20284;-77
2020/12/05 16:57:18;;;;;;;49.17;30.43;;;;;2.90;99370.00;;;;10087751;29;20210;-76
2020/12/05 17:02:20;;;;;;;22.03;17.10;;;;;2.80;99379.00;;;;10079496;29;20997;-76
2020/12/05 17:07:22;;;;;;;18.93;14.63;;;;;2.90;99386.00;;;;10082505;29;20272;-76
2020/12/05 17:12:24;;;;;;;5.77;3.60;;;;;3.10;99392.00;;;;10071924;29;20215;-76
2020/12/05 17:17:26;;;;;;;4.67;3.53;;;;;3.40;99397.00;;;;10071680;29;20290;-76
2020/12/05 17:22:30;;;;;;;4.90;3.43;;;;;3.50;99396.00;;;;10057194;29;20239;-76
2020/12/05 17:27:32;;;;;;;5.13;3.57;;;;;3.50;99397.00;;;;10069254;29;20605;-76
2020/12/05 17:32:34;;;;;;;8.63;5.57;;;;;3.50;99400.00;;;;10072484;29;20826;-77
2020/12/05 17:37:36;;;;;;;5.03;3.00;;;;;3.30;99397.00;;;;10086312;29;20638;-76
2020/12/05 17:42:38;;;;;;;4.27;3.67;;;;;3.10;99385.00;;;;10067850;29;20235;-76
2020/12/05 17:47:41;;;;;;;8.23;2.93;;;;;2.90;99393.00;;;;10069818;29;20291;-76
2020/12/05 17:52:47;;;;;;;4.90;2.87;;;;;2.80;99405.00;;;;10083636;29;20271;-76
2020/12/05 17:57:49;;;;;;;5.50;2.83;;;;;2.80;99402.00;;;;10091851;29;20651;-76
2020/12/05 18:02:51;;;;;;;6.07;3.77;;;;;2.70;99422.00;;;;10071113;29;20263;-76
2020/12/05 18:07:53;;;;;;;6.43;3.27;;;;;2.60;99431.00;;;;10102446;29;20203;-83
2020/12/05 18:12:55;;;;;;;11.83;6.80;;;;;2.60;99445.00;;;;10077351;29;20845;-77
2020/12/05 18:17:57;;;;;;;26.33;13.70;;;;;2.50;99451.00;;;;10071502;29;20261;-77
2020/12/05 18:22:59;;;;;;;7.03;4.97;;;;;2.50;99448.00;;;;10079506;29;20236;-77
2020/12/05 18:28:01;;;;;;;7.67;3.97;;;;;2.40;99447.00;;;;10100500;29;20239;-77
2020/12/05 18:33:04;;;;;;;6.33;4.60;;;;;2.20;99450.00;;;;10096892;29;20276;-77
2020/12/05 18:38:07;;;;;;;5.97;4.50;;;;;2.00;99454.00;;;;10086130;29;20292;-76
2020/12/05 18:43:09;;;;;;;6.50;4.77;;;;;1.90;99446.00;;;;10083327;29;20642;-76
2020/12/05 18:48:11;;;;;;;5.53;4.50;;;;;1.70;99436.00;;;;10085716;29;20224;-76
2020/12/05 18:53:14;;;;;;;11.53;7.23;;;;;1.50;99464.00;;;;10083046;29;20341;-77
2020/12/05 18:58:16;;;;;;;6.90;5.83;;;;;1.40;99465.00;;;;10096560;29;20232;-76
2020/12/05 19:03:18;;;;;;;9.53;6.33;;;;;1.20;99464.00;;;;10116893;29;20240;-76
2020/12/05 19:08:21;;;;;;;11.67;8.20;;;;;1.10;99468.00;;;;10105540;29;20299;-75
2020/12/05 19:13:24;;;;;;;13.33;9.23;;;;;1.10;99455.00;;;;10078084;29;20330;-76
2020/12/05 19:18:26;;;;;;;16.37;10.20;;;;;1.10;99447.00;;;;10094670;29;20256;-76
2020/12/05 19:23:28;;;;;;;12.83;8.77;;;;;1.10;99449.00;;;;10112697;29;20310;-77
2020/12/05 19:28:30;;;;;;;15.57;9.23;;;;;1.00;99452.00;;;;10075356;29;20218;-76
2020/12/05 19:33:32;;;;;;;13.00;9.43;;;;;0.80;99455.00;;;;10109219;29;20311;-84
2020/12/05 19:38:35;;;;;;;13.10;8.63;;;;;0.70;99462.00;;;;10082949;29;20901;-76
2020/12/05 19:43:37;;;;;;;10.70;8.80;;;;;0.60;99452.00;;;;10105043;29;20264;-76
2020/12/05 19:48:39;;;;;;;10.47;8.30;;;;;0.50;99448.00;;;;10092789;29;20706;-77
2020/12/05 19:53:41;;;;;;;14.73;8.70;;;;;0.40;99459.00;;;;10103535;29;20232;-76
2020/12/05 19:58:43;;;;;;;14.00;8.93;;;;;0.20;99439.00;;;;10074179;29;20227;-76
2020/12/05 20:03:45;;;;;;;16.63;12.60;;;;;0.10;99444.00;;;;10112280;29;20242;-76
2020/12/05 20:08:47;;;;;;;18.73;12.80;;;;;0.00;99446.00;;;;10082043;29;20319;-76
2020/12/05 20:13:50;;;;;;;16.27;11.90;;;;;-0.10;99470.00;;;;10106359;29;20228;-76
2020/12/05 20:18:58;;;;;;;15.57;11.67;;;;;0.00;99484.00;;;;10061869;29;20653;-77
2020/12/05 20:24:00;;;;;;;15.07;10.33;;;;;-0.10;99468.00;;;;10103544;29;20247;-76
2020/12/05 20:29:02;;;;;;;17.13;10.93;;;;;-0.10;99484.00;;;;10093389;29;20211;-76
2020/12/05 20:34:05;;;;;;;18.30;11.80;;;;;-0.10;99476.00;;;;10078829;29;20228;-77
2020/12/05 20:39:07;;;;;;;14.77;11.37;;;;;-0.20;99476.00;;;;10106643;29;20659;-76
2020/12/05 20:44:09;;;;;;;16.30;11.30;;;;;-0.30;99485.00;;;;10098586;29;20268;-76
2020/12/05 20:49:11;;;;;;;17.53;12.47;;;;;-0.30;99477.00;;;;10086981;29;20230;-76
2020/12/05 20:54:14;;;;;;;22.57;16.13;;;;;-0.30;99492.00;;;;10087210;29;20348;-76
2020/12/05 20:59:16;;;;;;;20.53;13.97;;;;;-0.30;99490.00;;;;10088048;29;20604;-77
2020/12/05 21:04:18;;;;;;;21.40;15.00;;;;;-0.30;99490.00;;;;10064306;29;20240;-76
2020/12/05 21:09:20;;;;;;;26.07;17.23;;;;;-0.20;99489.00;;;;10076134;29;20617;-77
2020/12/05 21:14:23;;;;;;;28.57;18.00;;;;;-0.10;99496.00;;;;10106436;29;20263;-76
2020/12/05 21:19:25;;;;;;;25.57;16.50;;;;;-0.10;99492.00;;;;10089984;29;20200;-76
2020/12/05 21:24:27;;;;;;;24.87;16.70;;;;;-0.10;99494.00;;;;10180599;23;20238;-79
2020/12/05 21:29:29;;;;;;;19.97;14.77;;;;;-0.10;99495.00;;;;10168967;29;20222;-77
2020/12/05 21:34:34;;;;;;;19.63;14.30;;;;;-0.20;99493.00;;;;10140610;29;20310;-79
2020/12/05 21:39:36;;;;;;;20.20;14.33;;;;;-0.30;99504.00;;;;10142538;29;20643;-76
2020/12/05 21:44:38;;;;;;;17.90;14.13;;;;;-0.40;99526.00;;;;10108224;29;20223;-79
2020/12/05 21:49:41;;;;;;;29.93;16.90;;;;;-0.50;99516.00;;;;10156253;29;20199;-76
2020/12/05 21:54:44;;;;;;;24.27;16.63;;;;;-0.60;99519.00;;;;10134301;29;20253;-77
2020/12/05 21:59:46;;;;;;;22.77;17.53;;;;;-0.60;99522.00;;;;10120046;29;20262;-80
2020/12/05 22:04:48;;;;;;;24.27;17.50;;;;;-0.50;99529.00;;;;10126683;29;20214;-77
2020/12/05 22:09:50;;;;;;;23.43;16.50;;;;;-0.50;99526.00;;;;10113406;29;20294;-77
2020/12/05 22:14:52;;;;;;;23.80;16.80;;;;;-0.50;99520.00;;;;10109275;29;20839;-77
2020/12/05 22:19:57;;;;;;;22.37;15.63;;;;;-0.50;99528.00;;;;10130381;29;20223;-76
2020/12/05 22:24:59;;;;;;;25.80;19.00;;;;;-0.50;99530.00;;;;10111659;29;20335;-76
2020/12/05 22:30:05;;;;;;;31.13;19.83;;;;;-0.60;99518.00;;;;10117281;29;20219;-79
2020/12/05 22:35:08;;;;;;;31.77;20.00;;;;;-0.70;99516.00;;;;10130635;29;20427;-81
2020/12/05 22:40:10;;;;;;;26.83;18.43;;;;;-0.70;99515.00;;;;10131428;29;20231;-81
2020/12/05 22:45:12;;;;;;;23.07;18.73;;;;;-0.70;99517.00;;;;10124611;29;20272;-75
2020/12/05 22:50:15;;;;;;;24.87;18.20;;;;;-0.70;99514.00;;;;10096673;29;20211;-77
2020/12/05 22:55:17;;;;;;;25.37;16.90;;;;;-0.80;99511.00;;;;10131209;29;20258;-81
2020/12/05 23:00:31;;;;;;;25.00;16.97;;;;;-0.90;99515.00;;;;10108602;29;20725;-82
2020/12/05 23:05:33;;;;;;;26.07;15.73;;;;;-1.00;99512.00;;;;10105489;29;20239;-79
2020/12/05 23:10:37;;;;;;;22.10;15.73;;;;;-1.10;99506.00;;;;10120328;29;20200;-79
2020/12/05 23:15:39;;;;;;;23.50;16.30;;;;;-1.20;99519.00;;;;10100459;29;20632;-78
2020/12/05 23:20:41;;;;;;;27.87;18.43;;;;;-1.20;99517.00;;;;10116808;29;20303;-76
2020/12/05 23:25:43;;;;;;;24.07;18.03;;;;;-1.20;99516.00;;;;10123557;29;20739;-83
2020/12/05 23:36:06;;;;;;;29.73;20.27;;;;;-1.30;99501.00;;;;10130309;29;20199;-77
2020/12/05 23:41:14;;;;;;;25.97;19.07;;;;;-1.30;99510.00;;;;10141606;29;20315;-81
2020/12/05 23:46:17;;;;;;;24.20;18.53;;;;;-1.30;99505.00;;;;10113502;29;20219;-76
2020/12/05 23:51:26;;;;;;;27.30;18.20;;;;;-1.30;99513.00;;;;10128524;29;20615;-76
2020/12/05 23:56:29;;;;;;;27.33;19.40;;;;;-1.20;99523.00;;;;10137915;29;20726;-77
